Jack Robertson — WDE5993 — position and weather

sailwx.info

Track history (hours):
 
Tides and Currents Weather Stations Pressure Air Temp Water Temp Dewpoint Dewpoint Depression Visibility Wind Speed Wind Dir Waves Ship Positions

Oceanographic research ship Jack Robertson (United States)

Owner: University of Washington Applied Physics Laboratory, Seattle, WA. More information available from US FCC via Universal Licensing System and Coast Guard Vessel Documentation Center.

Last reported at 2019-May-31 16:14 UTC. Time now 2019-Jun-19 14:52 UTC.
Position N 47°39' W 122°19'.
Warning: this ship's position is 18 days out of date.

; draft 1.7 m.

Type: Other ship. MMSI: 367374350.

Date/timePositionNaut miles runAvg speedWind from/ knotsBaromVisibWave heightAir tempDewpointWater temp
2019-May-31 16:14N 47°39' W 122°19'1 2.2
2019-May-31 16:00N 47°39' W 122°20'2 5.0
2019-May-31 15:30N 47°40' W 122°23'0 0.0
2019-May-31 15:00N 47°40' W 122°23'2 4.1
2019-May-31 14:30N 47°39' W 122°21'  
2019-May-29 03:44N 47°39' W 122°19'0 0.2
2019-May-29 03:30N 47°39' W 122°19'3 5.8
2019-May-29 03:00N 47°40' W 122°23'1 2.1
2019-May-29 02:31N 47°40' W 122°25'4 8.6
2019-May-29 02:00N 47°45' W 122°26'4 8.9
2019-May-29 01:30N 47°49' W 122°28'4 8.6
2019-May-29 01:00N 47°53' W 122°30'21 6.8
2019-May-28 21:58N 48°08' W 122°50'10 0.6
2019-May-28 04:57N 48°04' W 122°38'5 7.4
2019-May-28 04:20N 47°60' W 122°35'3 7.7
2019-May-28 03:57N 47°57' W 122°32'4 8.2
2019-May-28 03:30N 47°55' W 122°28'4 8.8
2019-May-28 03:00N 47°50' W 122°27'5 9.0
2019-May-28 02:30N 47°46' W 122°25'4 9.0
2019-May-28 02:00N 47°41' W 122°25'2 3.6
2019-May-28 01:30N 47°40' W 122°24'2 4.1
2019-May-28 01:00N 47°39' W 122°21'1 2.6
2019-May-28 00:30N 47°39' W 122°19'  
2019-May-24 03:31N 47°39' W 122°19'014.7
2019-May-24 03:30N 47°39' W 122°19'2 4.2
2019-May-24 03:00N 47°39' W 122°22'2 3.6
2019-May-24 02:30N 47°40' W 122°25'3 5.1
2019-May-24 02:01N 47°42' W 122°27'3 5.1
2019-May-24 01:30N 47°45' W 122°27'5 9.8
2019-May-24 01:00N 47°49' W 122°29'5 9.7
2019-May-24 00:30N 47°54' W 122°31'610.2
2019-May-23 23:56N 47°58' W 122°37'3 5.8
2019-May-23 23:27N 48°01' W 122°39'53 6.5
2019-May-23 15:14N 48°16' W 123°56'2 3.5
2019-May-23 14:35N 48°16' W 123°59'1 4.9
2019-May-23 14:27N 48°16' W 124°00'4 9.2
2019-May-23 14:00N 48°18' W 124°06'4 8.8
2019-May-23 13:30N 48°20' W 124°12'4 8.7
2019-May-23 13:01N 48°21' W 124°18'4 8.6
2019-May-23 12:30N 48°23' W 124°24'1 3.0
2019-May-23 12:00N 48°24' W 124°26'2 4.9
2019-May-23 11:30N 48°24' W 124°30'4 9.1
2019-May-23 11:00N 48°22' W 124°36'1 0.1
2019-May-23 04:14N 48°22' W 124°37'1 5.1
2019-May-23 04:00N 48°23' W 124°35'4 8.8
2019-May-23 03:31N 48°24' W 124°42'5 9.7
2019-May-23 03:00N 48°23' W 124°49'4 8.4
2019-May-23 02:30N 48°19' W 124°47'25 1.1
2019-May-22 04:39N 47°55' W 124°38'0 0.0
2019-May-22 04:29N 47°55' W 124°38'0 0.0
2019-May-22 04:00N 47°55' W 124°38'0 0.0
2019-May-22 03:30N 47°55' W 124°38'0 0.0
2019-May-22 03:00N 47°55' W 124°38'0 0.0
2019-May-22 02:29N 47°55' W 124°38'0 0.0
2019-May-22 01:43N 47°55' W 124°38'0 0.0
2019-May-22 01:30N 47°55' W 124°38'0 0.0
2019-May-22 01:00N 47°55' W 124°38'0 0.0
2019-May-22 00:30N 47°55' W 124°38'  
Track history (hours):
 
Tides and Currents Weather Stations Pressure Air Temp Water Temp Dewpoint Dewpoint Depression Visibility Wind Speed Wind Dir Waves Ship Positions

Oceanographic research ship Jack Robertson (United States)

Owner: University of Washington Applied Physics Laboratory, Seattle, WA. More information available from US FCC via Universal Licensing System and Coast Guard Vessel Documentation Center.

Last reported at 2019-May-31 16:14 UTC. Time now 2019-Jun-19 14:52 UTC.
Position N 47°39' W 122°19'.
Warning: this ship's position is 18 days out of date.

; draft 1.7 m.

Type: Other ship. MMSI: 367374350.

Date/timePositionNaut miles runAvg speedWind from/ knotsBaromVisibWave heightAir tempDewpointWater temp
2019-May-31 16:14N 47°39' W 122°19'1 2.2
2019-May-31 16:00N 47°39' W 122°20'2 5.0
2019-May-31 15:30N 47°40' W 122°23'0 0.0
2019-May-31 15:00N 47°40' W 122°23'2 4.1
2019-May-31 14:30N 47°39' W 122°21'  
2019-May-29 03:44N 47°39' W 122°19'0 0.2
2019-May-29 03:30N 47°39' W 122°19'3 5.8
2019-May-29 03:00N 47°40' W 122°23'1 2.1
2019-May-29 02:31N 47°40' W 122°25'4 8.6
2019-May-29 02:00N 47°45' W 122°26'4 8.9
2019-May-29 01:30N 47°49' W 122°28'4 8.6
2019-May-29 01:00N 47°53' W 122°30'21 6.8
2019-May-28 21:58N 48°08' W 122°50'10 0.6
2019-May-28 04:57N 48°04' W 122°38'5 7.4
2019-May-28 04:20N 47°60' W 122°35'3 7.7
2019-May-28 03:57N 47°57' W 122°32'4 8.2
2019-May-28 03:30N 47°55' W 122°28'4 8.8
2019-May-28 03:00N 47°50' W 122°27'5 9.0
2019-May-28 02:30N 47°46' W 122°25'4 9.0
2019-May-28 02:00N 47°41' W 122°25'2 3.6
2019-May-28 01:30N 47°40' W 122°24'2 4.1
2019-May-28 01:00N 47°39' W 122°21'1 2.6
2019-May-28 00:30N 47°39' W 122°19'  
2019-May-24 03:31N 47°39' W 122°19'014.7
2019-May-24 03:30N 47°39' W 122°19'2 4.2
2019-May-24 03:00N 47°39' W 122°22'2 3.6
2019-May-24 02:30N 47°40' W 122°25'3 5.1
2019-May-24 02:01N 47°42' W 122°27'3 5.1
2019-May-24 01:30N 47°45' W 122°27'5 9.8
2019-May-24 01:00N 47°49' W 122°29'5 9.7
2019-May-24 00:30N 47°54' W 122°31'610.2
2019-May-23 23:56N 47°58' W 122°37'3 5.8
2019-May-23 23:27N 48°01' W 122°39'53 6.5
2019-May-23 15:14N 48°16' W 123°56'2 3.5
2019-May-23 14:35N 48°16' W 123°59'1 4.9
2019-May-23 14:27N 48°16' W 124°00'4 9.2
2019-May-23 14:00N 48°18' W 124°06'4 8.8
2019-May-23 13:30N 48°20' W 124°12'4 8.7
2019-May-23 13:01N 48°21' W 124°18'4 8.6
2019-May-23 12:30N 48°23' W 124°24'1 3.0
2019-May-23 12:00N 48°24' W 124°26'2 4.9
2019-May-23 11:30N 48°24' W 124°30'4 9.1
2019-May-23 11:00N 48°22' W 124°36'1 0.1
2019-May-23 04:14N 48°22' W 124°37'1 5.1
2019-May-23 04:00N 48°23' W 124°35'4 8.8
2019-May-23 03:31N 48°24' W 124°42'5 9.7
2019-May-23 03:00N 48°23' W 124°49'4 8.4
2019-May-23 02:30N 48°19' W 124°47'25 1.1
2019-May-22 04:39N 47°55' W 124°38'0 0.0
2019-May-22 04:29N 47°55' W 124°38'0 0.0
2019-May-22 04:00N 47°55' W 124°38'0 0.0
2019-May-22 03:30N 47°55' W 124°38'0 0.0
2019-May-22 03:00N 47°55' W 124°38'0 0.0
2019-May-22 02:29N 47°55' W 124°38'0 0.0
2019-May-22 01:43N 47°55' W 124°38'0 0.0
2019-May-22 01:30N 47°55' W 124°38'0 0.0
2019-May-22 01:00N 47°55' W 124°38'0 0.0
2019-May-22 00:30N 47°55' W 124°38'  

Dump ship's entire track history